sensor_id;sensor_type;location;lat;lon;timestamp;pressure;altitude;pressure_sealevel;temperature
71960;BMP280;59832;51.146;14.024;2023-08-31T00:01:01;97388.41;;;12.85
71960;BMP280;59832;51.146;14.024;2023-08-31T00:03:31;97390.94;;;12.85
71960;BMP280;59832;51.146;14.024;2023-08-31T00:06:01;97393.84;;;12.87
71960;BMP280;59832;51.146;14.024;2023-08-31T00:08:28;97392.38;;;12.89
71960;BMP280;59832;51.146;14.024;2023-08-31T00:10:56;97393.13;;;12.86
71960;BMP280;59832;51.146;14.024;2023-08-31T00:13:24;97394.22;;;12.85
71960;BMP280;59832;51.146;14.024;2023-08-31T00:15:54;97404.41;;;12.89
71960;BMP280;59832;51.146;14.024;2023-08-31T00:18:22;97401.13;;;12.95
71960;BMP280;59832;51.146;14.024;2023-08-31T00:20:48;97397.09;;;12.94
71960;BMP280;59832;51.146;14.024;2023-08-31T00:23:15;97395.66;;;12.93
71960;BMP280;59832;51.146;14.024;2023-08-31T00:25:41;97409.50;;;12.96
71960;BMP280;59832;51.146;14.024;2023-08-31T00:28:10;97407.63;;;13.00
71960;BMP280;59832;51.146;14.024;2023-08-31T00:30:37;97419.69;;;13.03
71960;BMP280;59832;51.146;14.024;2023-08-31T00:33:04;97420.00;;;13.05
71960;BMP280;59832;51.146;14.024;2023-08-31T00:35:33;97421.09;;;13.07
71960;BMP280;59832;51.146;14.024;2023-08-31T00:38:00;97424.00;;;13.09
71960;BMP280;59832;51.146;14.024;2023-08-31T00:40:27;97429.84;;;13.10
71960;BMP280;59832;51.146;14.024;2023-08-31T00:42:59;97446.63;;;13.11
71960;BMP280;59832;51.146;14.024;2023-08-31T00:45:26;97433.47;;;13.12
71960;BMP280;59832;51.146;14.024;2023-08-31T00:47:54;97446.94;;;13.16
71960;BMP280;59832;51.146;14.024;2023-08-31T00:50:21;97446.19;;;13.19
71960;BMP280;59832;51.146;14.024;2023-08-31T00:52:48;97442.50;;;13.24
71960;BMP280;59832;51.146;14.024;2023-08-31T00:55:15;97449.81;;;13.25
71960;BMP280;59832;51.146;14.024;2023-08-31T00:57:45;97451.63;;;13.28
71960;BMP280;59832;51.146;14.024;2023-08-31T01:00:12;97457.41;;;13.33
71960;BMP280;59832;51.146;14.024;2023-08-31T01:02:59;97447.94;;;13.33
71960;BMP280;59832;51.146;14.024;2023-08-31T01:05:53;97453.03;;;13.33
71960;BMP280;59832;51.146;14.024;2023-08-31T01:08:43;97461.06;;;13.32
71960;BMP280;59832;51.146;14.024;2023-08-31T01:11:36;97457.06;;;13.34
71960;BMP280;59832;51.146;14.024;2023-08-31T01:14:11;97444.59;;;13.40
71960;BMP280;59832;51.146;14.024;2023-08-31T01:16:39;97433.63;;;13.39
71960;BMP280;59832;51.146;14.024;2023-08-31T01:20:02;97431.47;;;13.38
71960;BMP280;59832;51.146;14.024;2023-08-31T01:22:09;97425.63;;;13.37
71960;BMP280;59832;51.146;14.024;2023-08-31T01:24:38;97417.97;;;13.37
71960;BMP280;59832;51.146;14.024;2023-08-31T01:27:05;97412.91;;;13.30
71960;BMP280;59832;51.146;14.024;2023-08-31T01:29:32;97420.22;;;13.24
71960;BMP280;59832;51.146;14.024;2023-08-31T01:31:58;97419.56;;;13.20
71960;BMP280;59832;51.146;14.024;2023-08-31T01:34:25;97425.41;;;13.14
71960;BMP280;59832;51.146;14.024;2023-08-31T01:36:56;97419.63;;;13.10
71960;BMP280;59832;51.146;14.024;2023-08-31T01:39:33;97421.47;;;13.06
71960;BMP280;59832;51.146;14.024;2023-08-31T01:42:03;97415.66;;;13.02
71960;BMP280;59832;51.146;14.024;2023-08-31T01:44:34;97404.00;;;13.01
71960;BMP280;59832;51.146;14.024;2023-08-31T01:47:05;97410.94;;;13.04
71960;BMP280;59832;51.146;14.024;2023-08-31T01:49:38;97409.41;;;13.10
71960;BMP280;59832;51.146;14.024;2023-08-31T01:52:06;97411.25;;;13.09
71960;BMP280;59832;51.146;14.024;2023-08-31T01:54:33;97407.91;;;13.16
71960;BMP280;59832;51.146;14.024;2023-08-31T01:57:00;97409.03;;;13.11
71960;BMP280;59832;51.146;14.024;2023-08-31T01:59:29;97415.31;;;13.03
71960;BMP280;59832;51.146;14.024;2023-08-31T02:01:56;97405.81;;;13.00
71960;BMP280;59832;51.146;14.024;2023-08-31T02:04:23;97405.81;;;13.00
71960;BMP280;59832;51.146;14.024;2023-08-31T02:06:49;97401.78;;;12.99
71960;BMP280;59832;51.146;14.024;2023-08-31T02:09:16;97410.56;;;13.02
71960;BMP280;59832;51.146;14.024;2023-08-31T02:11:43;97419.69;;;12.99
71960;BMP280;59832;51.146;14.024;2023-08-31T02:14:11;97421.50;;;13.02
71960;BMP280;59832;51.146;14.024;2023-08-31T02:16:38;97428.38;;;13.05
71960;BMP280;59832;51.146;14.024;2023-08-31T02:19:05;97433.88;;;13.07
71960;BMP280;59832;51.146;14.024;2023-08-31T02:21:32;97437.16;;;13.08
71960;BMP280;59832;51.146;14.024;2023-08-31T02:23:58;97429.50;;;13.08
71960;BMP280;59832;51.146;14.024;2023-08-31T02:26:25;97435.31;;;13.12
71960;BMP280;59832;51.146;14.024;2023-08-31T02:28:52;97445.84;;;13.14
71960;BMP280;59832;51.146;14.024;2023-08-31T02:31:18;97438.16;;;13.17
71960;BMP280;59832;51.146;14.024;2023-08-31T02:33:48;97444.00;;;13.18
71960;BMP280;59832;51.146;14.024;2023-08-31T02:36:16;97444.00;;;13.18
71960;BMP280;59832;51.146;14.024;2023-08-31T02:38:43;97444.75;;;13.18
71960;BMP280;59832;51.146;14.024;2023-08-31T02:41:10;97451.31;;;13.19
71960;BMP280;59832;51.146;14.024;2023-08-31T02:43:37;97446.53;;;13.21
71960;BMP280;59832;51.146;14.024;2023-08-31T02:46:04;97457.16;;;13.20
71960;BMP280;59832;51.146;14.024;2023-08-31T02:48:32;97460.06;;;13.18
71960;BMP280;59832;51.146;14.024;2023-08-31T02:51:00;97466.63;;;13.19
71960;BMP280;59832;51.146;14.024;2023-08-31T02:53:32;97463.00;;;13.20
71960;BMP280;59832;51.146;14.024;2023-08-31T02:55:59;97467.34;;;13.23
71960;BMP280;59832;51.146;14.024;2023-08-31T02:58:26;97475.34;;;13.25
71960;BMP280;59832;51.146;14.024;2023-08-31T03:00:53;97467.69;;;13.29
71960;BMP280;59832;51.146;14.024;2023-08-31T03:03:20;97472.75;;;13.33
71960;BMP280;59832;51.146;14.024;2023-08-31T03:05:47;97472.34;;;13.38
71960;BMP280;59832;51.146;14.024;2023-08-31T03:08:13;97470.19;;;13.36
71960;BMP280;59832;51.146;14.024;2023-08-31T03:10:40;97486.22;;;13.37
71960;BMP280;59832;51.146;14.024;2023-08-31T03:13:07;97481.50;;;13.32
71960;BMP280;59832;51.146;14.024;2023-08-31T03:15:34;97484.41;;;13.37
71960;BMP280;59832;51.146;14.024;2023-08-31T03:18:00;97484.78;;;13.32
71960;BMP280;59832;51.146;14.024;2023-08-31T03:20:28;97489.94;;;13.25
71960;BMP280;59832;51.146;14.024;2023-08-31T03:22:55;97496.16;;;13.27
71960;BMP280;59832;51.146;14.024;2023-08-31T03:25:21;97495.78;;;13.25
71960;BMP280;59832;51.146;14.024;2023-08-31T03:27:48;97487.81;;;13.20
71960;BMP280;59832;51.146;14.024;2023-08-31T03:30:15;97508.25;;;13.20
71960;BMP280;59832;51.146;14.024;2023-08-31T03:32:42;97511.53;;;13.20
71960;BMP280;59832;51.146;14.024;2023-08-31T03:35:09;97510.81;;;13.16
71960;BMP280;59832;51.146;14.024;2023-08-31T03:37:36;97511.59;;;13.10
71960;BMP280;59832;51.146;14.024;2023-08-31T03:40:03;97510.13;;;13.05
71960;BMP280;59832;51.146;14.024;2023-08-31T03:42:36;97505.75;;;13.06
71960;BMP280;59832;51.146;14.024;2023-08-31T03:45:03;97509.41;;;13.08
71960;BMP280;59832;51.146;14.024;2023-08-31T03:47:30;97526.22;;;13.02
71960;BMP280;59832;51.146;14.024;2023-08-31T03:49:57;97532.06;;;12.99
71960;BMP280;59832;51.146;14.024;2023-08-31T03:52:23;97528.03;;;12.98
71960;BMP280;59832;51.146;14.024;2023-08-31T03:54:51;97527.69;;;13.00
71960;BMP280;59832;51.146;14.024;2023-08-31T03:57:18;97524.75;;;12.98
71960;BMP280;59832;51.146;14.024;2023-08-31T03:59:45;97529.91;;;12.94
71960;BMP280;59832;51.146;14.024;2023-08-31T04:02:12;97539.75;;;12.92
71960;BMP280;59832;51.146;14.024;2023-08-31T04:04:40;97533.91;;;12.92
71960;BMP280;59832;51.146;14.024;2023-08-31T04:07:06;97542.31;;;12.89
71960;BMP280;59832;51.146;14.024;2023-08-31T04:09:33;97538.66;;;12.93
71960;BMP280;59832;51.146;14.024;2023-08-31T04:12:00;97539.03;;;12.88
71960;BMP280;59832;51.146;14.024;2023-08-31T04:14:27;97529.22;;;12.83
71960;BMP280;59832;51.146;14.024;2023-08-31T04:16:55;97520.09;;;12.82
71960;BMP280;59832;51.146;14.024;2023-08-31T04:19:21;97524.47;;;12.78
71960;BMP280;59832;51.146;14.024;2023-08-31T04:21:48;97528.50;;;12.83
71960;BMP280;59832;51.146;14.024;2023-08-31T04:24:15;97539.44;;;12.79
71960;BMP280;59832;51.146;14.024;2023-08-31T04:26:43;97543.06;;;12.78
71960;BMP280;59832;51.146;14.024;2023-08-31T04:29:10;97543.44;;;12.80
71960;BMP280;59832;51.146;14.024;2023-08-31T04:31:36;97542.34;;;12.82
71960;BMP280;59832;51.146;14.024;2023-08-31T04:34:04;97538.69;;;12.79
71960;BMP280;59832;51.146;14.024;2023-08-31T04:36:31;97540.16;;;12.84
71960;BMP280;59832;51.146;14.024;2023-08-31T04:38:58;97547.81;;;12.84
71960;BMP280;59832;51.146;14.024;2023-08-31T04:41:24;97551.13;;;12.84
71960;BMP280;59832;51.146;14.024;2023-08-31T04:43:51;97549.25;;;12.85
71960;BMP280;59832;51.146;14.024;2023-08-31T04:46:18;97552.91;;;12.87
71960;BMP280;59832;51.146;14.024;2023-08-31T04:48:45;97546.00;;;12.84
71960;BMP280;59832;51.146;14.024;2023-08-31T04:51:32;97552.56;;;12.85
71960;BMP280;59832;51.146;14.024;2023-08-31T04:54:01;97552.56;;;12.85
71960;BMP280;59832;51.146;14.024;2023-08-31T04:56:31;97560.94;;;12.86
71960;BMP280;59832;51.146;14.024;2023-08-31T04:59:01;97567.47;;;12.87
71960;BMP280;59832;51.146;14.024;2023-08-31T05:01:29;97568.94;;;12.88
71960;BMP280;59832;51.146;14.024;2023-08-31T05:03:56;97571.16;;;12.89
71960;BMP280;59832;51.146;14.024;2023-08-31T05:06:24;97570.78;;;12.91
71960;BMP280;59832;51.146;14.024;2023-08-31T05:08:51;97583.16;;;12.92
71960;BMP280;59832;51.146;14.024;2023-08-31T05:11:18;97578.03;;;12.96
71960;BMP280;59832;51.146;14.024;2023-08-31T05:13:46;97585.34;;;12.97
71960;BMP280;59832;51.146;14.024;2023-08-31T05:16:13;97593.72;;;12.98
71960;BMP280;59832;51.146;14.024;2023-08-31T05:18:40;97598.47;;;12.99
71960;BMP280;59832;51.146;14.024;2023-08-31T05:21:07;97602.09;;;12.98
71960;BMP280;59832;51.146;14.024;2023-08-31T05:23:33;97599.56;;;13.02
71960;BMP280;59832;51.146;14.024;2023-08-31T05:26:00;97604.31;;;13.03
71960;BMP280;59832;51.146;14.024;2023-08-31T05:28:27;97605.03;;;13.11
71960;BMP280;59832;51.146;14.024;2023-08-31T05:30:59;97605.03;;;13.11
71960;BMP280;59832;51.146;14.024;2023-08-31T05:33:25;97599.13;;;13.14
71960;BMP280;59832;51.146;14.024;2023-08-31T05:35:54;97604.28;;;13.10
71960;BMP280;59832;51.146;14.024;2023-08-31T05:38:21;97606.09;;;13.17
71960;BMP280;59832;51.146;14.024;2023-08-31T05:40:48;97610.81;;;13.15
71960;BMP280;59832;51.146;14.024;2023-08-31T05:43:15;97618.50;;;13.15
71960;BMP280;59832;51.146;14.024;2023-08-31T05:45:42;97619.19;;;13.22
71960;BMP280;59832;51.146;14.024;2023-08-31T05:48:09;97623.22;;;13.20
71960;BMP280;59832;51.146;14.024;2023-08-31T05:50:36;97622.09;;;13.28
71960;BMP280;59832;51.146;14.024;2023-08-31T05:53:05;97634.91;;;13.21
71960;BMP280;59832;51.146;14.024;2023-08-31T05:55:34;97633.06;;;13.21
71960;BMP280;59832;51.146;14.024;2023-08-31T05:58:01;97628.69;;;13.29
71960;BMP280;59832;51.146;14.024;2023-08-31T06:00:29;97628.25;;;13.30
71960;BMP280;59832;51.146;14.024;2023-08-31T06:02:55;97631.97;;;13.22
71960;BMP280;59832;51.146;14.024;2023-08-31T06:05:22;97629.06;;;13.20
71960;BMP280;59832;51.146;14.024;2023-08-31T06:07:49;97633.06;;;13.21
71960;BMP280;59832;51.146;14.024;2023-08-31T06:10:16;97629.03;;;13.24
71960;BMP280;59832;51.146;14.024;2023-08-31T06:12:42;97628.03;;;13.11
71960;BMP280;59832;51.146;14.024;2023-08-31T06:15:09;97635.66;;;13.14
71960;BMP280;59832;51.146;14.024;2023-08-31T06:17:39;97632.72;;;13.19
71960;BMP280;59832;51.146;14.024;2023-08-31T06:20:07;97633.44;;;13.23
71960;BMP280;59832;51.146;14.024;2023-08-31T06:22:34;97629.72;;;13.32
71960;BMP280;59832;51.146;14.024;2023-08-31T06:25:01;97628.63;;;13.33
71960;BMP280;59832;51.146;14.024;2023-08-31T06:27:29;97634.09;;;13.31
71960;BMP280;59832;51.146;14.024;2023-08-31T06:29:55;97632.63;;;13.37
71960;BMP280;59832;51.146;14.024;2023-08-31T06:32:22;97636.28;;;13.43
71960;BMP280;59832;51.146;14.024;2023-08-31T06:34:49;97636.59;;;13.49
71960;BMP280;59832;51.146;14.024;2023-08-31T06:37:16;97642.81;;;13.55
71960;BMP280;59832;51.146;14.024;2023-08-31T06:39:43;97646.03;;;13.59
71960;BMP280;59832;51.146;14.024;2023-08-31T06:42:10;97640.22;;;13.62
71960;BMP280;59832;51.146;14.024;2023-08-31T06:44:37;97653.69;;;13.62
71960;BMP280;59832;51.146;14.024;2023-08-31T06:47:03;97653.38;;;13.53
71960;BMP280;59832;51.146;14.024;2023-08-31T06:49:31;97651.19;;;13.55
71960;BMP280;59832;51.146;14.024;2023-08-31T06:52:00;97658.06;;;13.65
71960;BMP280;59832;51.146;14.024;2023-08-31T06:54:27;97659.41;;;13.84
71960;BMP280;59832;51.146;14.024;2023-08-31T06:56:54;97659.78;;;13.86
71960;BMP280;59832;51.146;14.024;2023-08-31T06:59:21;97665.97;;;13.89
71960;BMP280;59832;51.146;14.024;2023-08-31T07:01:47;97665.63;;;13.83
71960;BMP280;59832;51.146;14.024;2023-08-31T07:04:14;97665.97;;;13.92
71960;BMP280;59832;51.146;14.024;2023-08-31T07:06:41;97676.06;;;14.10
71960;BMP280;59832;51.146;14.024;2023-08-31T07:09:07;97668.00;;;14.15
71960;BMP280;59832;51.146;14.024;2023-08-31T07:11:35;97663.63;;;14.15
71960;BMP280;59832;51.146;14.024;2023-08-31T07:14:01;97671.56;;;14.28
71960;BMP280;59832;51.146;14.024;2023-08-31T07:16:28;97671.13;;;14.40
71960;BMP280;59832;51.146;14.024;2023-08-31T07:18:55;97673.22;;;14.49
71960;BMP280;59832;51.146;14.024;2023-08-31T07:21:22;97678.63;;;14.54
71960;BMP280;59832;51.146;14.024;2023-08-31T07:23:48;97680.47;;;14.54
71960;BMP280;59832;51.146;14.024;2023-08-31T07:26:15;97683.91;;;14.37
71960;BMP280;59832;51.146;14.024;2023-08-31T07:28:42;97694.78;;;14.51
71960;BMP280;59832;51.146;14.024;2023-08-31T07:31:09;97688.88;;;14.10
71960;BMP280;59832;51.146;14.024;2023-08-31T07:33:36;97697.22;;;14.17
71960;BMP280;59832;51.146;14.024;2023-08-31T07:36:04;97695.31;;;14.32
71960;BMP280;59832;51.146;14.024;2023-08-31T07:38:32;97705.44;;;14.46
71960;BMP280;59832;51.146;14.024;2023-08-31T07:40:59;97700.38;;;14.39
71960;BMP280;59832;51.146;14.024;2023-08-31T07:43:26;97701.72;;;14.51
71960;BMP280;59832;51.146;14.024;2023-08-31T07:45:53;97691.91;;;14.46
71960;BMP280;59832;51.146;14.024;2023-08-31T07:48:20;97704.81;;;14.32
71960;BMP280;59832;51.146;14.024;2023-08-31T07:50:47;97707.63;;;14.44
71960;BMP280;59832;51.146;14.024;2023-08-31T07:53:15;97709.94;;;14.76
71960;BMP280;59832;51.146;14.024;2023-08-31T07:55:51;97707.53;;;14.96
71960;BMP280;59832;51.146;14.024;2023-08-31T07:58:20;97708.84;;;15.11
71960;BMP280;59832;51.146;14.024;2023-08-31T08:00:47;97711.34;;;15.48
71960;BMP280;59832;51.146;14.024;2023-08-31T08:03:14;97721.59;;;15.48
71960;BMP280;59832;51.146;14.024;2023-08-31T08:05:42;97724.09;;;15.55
71960;BMP280;59832;51.146;14.024;2023-08-31T08:08:09;97722.72;;;15.77
71960;BMP280;59832;51.146;14.024;2023-08-31T08:10:36;97719.41;;;16.27
71960;BMP280;59832;51.146;14.024;2023-08-31T08:13:02;97714.47;;;16.40
71960;BMP280;59832;51.146;14.024;2023-08-31T08:15:30;97719.63;;;16.59
71960;BMP280;59832;51.146;14.024;2023-08-31T08:17:57;97717.34;;;16.84
71960;BMP280;59832;51.146;14.024;2023-08-31T08:20:26;97712.69;;;17.35
71960;BMP280;59832;51.146;14.024;2023-08-31T08:22:53;97718.84;;;17.41
71960;BMP280;59832;51.146;14.024;2023-08-31T08:25:20;97719.97;;;17.20
71960;BMP280;59832;51.146;14.024;2023-08-31T08:27:47;97722.56;;;16.81
71960;BMP280;59832;51.146;14.024;2023-08-31T08:30:14;97716.03;;;16.76
71960;BMP280;59832;51.146;14.024;2023-08-31T08:32:42;97720.56;;;16.69
71960;BMP280;59832;51.146;14.024;2023-08-31T08:35:10;97719.25;;;16.14
71960;BMP280;59832;51.146;14.024;2023-08-31T08:37:36;97723.75;;;16.07
71960;BMP280;59832;51.146;14.024;2023-08-31T08:40:03;97728.06;;;16.13
71960;BMP280;59832;51.146;14.024;2023-08-31T08:42:40;97729.22;;;16.32
71960;BMP280;59832;51.146;14.024;2023-08-31T08:45:15;97725.38;;;16.44
71960;BMP280;59832;51.146;14.024;2023-08-31T08:47:45;97730.50;;;16.67
71960;BMP280;59832;51.146;14.024;2023-08-31T08:50:13;97725.50;;;17.19
71960;BMP280;59832;51.146;14.024;2023-08-31T08:52:41;97732.28;;;17.29
71960;BMP280;59832;51.146;14.024;2023-08-31T08:55:08;97714.31;;;16.90
71960;BMP280;59832;51.146;14.024;2023-08-31T08:57:36;97735.25;;;16.68
71960;BMP280;59832;51.146;14.024;2023-08-31T09:00:03;97726.44;;;16.89
71960;BMP280;59832;51.146;14.024;2023-08-31T09:02:30;97735.75;;;17.42
71960;BMP280;59832;51.146;14.024;2023-08-31T09:04:57;97733.78;;;18.14
71960;BMP280;59832;51.146;14.024;2023-08-31T09:07:24;97733.16;;;18.55
71960;BMP280;59832;51.146;14.024;2023-08-31T09:09:52;97725.97;;;18.34
71960;BMP280;59832;51.146;14.024;2023-08-31T09:12:22;97729.50;;;17.75
71960;BMP280;59832;51.146;14.024;2023-08-31T09:14:59;97730.56;;;16.63
71960;BMP280;59832;51.146;14.024;2023-08-31T09:17:26;97730.00;;;16.75
71960;BMP280;59832;51.146;14.024;2023-08-31T09:20:03;97736.22;;;16.98
71960;BMP280;59832;51.146;14.024;2023-08-31T09:22:31;97735.44;;;17.56
71960;BMP280;59832;51.146;14.024;2023-08-31T09:24:58;97740.22;;;16.79
71960;BMP280;59832;51.146;14.024;2023-08-31T09:27:26;97738.19;;;16.90
71960;BMP280;59832;51.146;14.024;2023-08-31T09:29:55;97742.22;;;16.48
71960;BMP280;59832;51.146;14.024;2023-08-31T09:32:22;97745.63;;;16.42
71960;BMP280;59832;51.146;14.024;2023-08-31T09:34:49;97741.66;;;16.14
71960;BMP280;59832;51.146;14.024;2023-08-31T09:37:24;97747.41;;;16.45
71960;BMP280;59832;51.146;14.024;2023-08-31T09:39:51;97750.94;;;16.74
71960;BMP280;59832;51.146;14.024;2023-08-31T09:42:18;97743.94;;;16.74
71960;BMP280;59832;51.146;14.024;2023-08-31T09:44:45;97745.00;;;17.00
71960;BMP280;59832;51.146;14.024;2023-08-31T09:47:16;97752.56;;;17.07
71960;BMP280;59832;51.146;14.024;2023-08-31T09:49:43;97755.03;;;16.71
71960;BMP280;59832;51.146;14.024;2023-08-31T09:52:11;97750.41;;;16.63
71960;BMP280;59832;51.146;14.024;2023-08-31T09:54:38;97752.75;;;16.54
71960;BMP280;59832;51.146;14.024;2023-08-31T09:57:05;97757.63;;;16.68
71960;BMP280;59832;51.146;14.024;2023-08-31T09:59:32;97750.53;;;17.18
71960;BMP280;59832;51.146;14.024;2023-08-31T10:02:02;97743.41;;;17.78
71960;BMP280;59832;51.146;14.024;2023-08-31T10:04:31;97752.28;;;17.93
71960;BMP280;59832;51.146;14.024;2023-08-31T10:06:59;97748.75;;;18.48
71960;BMP280;59832;51.146;14.024;2023-08-31T10:09:26;97751.00;;;18.91
71960;BMP280;59832;51.146;14.024;2023-08-31T10:11:54;97756.00;;;19.11
71960;BMP280;59832;51.146;14.024;2023-08-31T10:14:21;97754.44;;;18.27
71960;BMP280;59832;51.146;14.024;2023-08-31T10:16:49;97750.19;;;18.65
71960;BMP280;59832;51.146;14.024;2023-08-31T10:19:19;97758.94;;;19.38
71960;BMP280;59832;51.146;14.024;2023-08-31T10:21:45;97747.53;;;19.10
71960;BMP280;59832;51.146;14.024;2023-08-31T10:24:12;97749.91;;;19.04
71960;BMP280;59832;51.146;14.024;2023-08-31T10:26:39;97750.09;;;18.69
71960;BMP280;59832;51.146;14.024;2023-08-31T10:29:05;97754.91;;;18.22
71960;BMP280;59832;51.146;14.024;2023-08-31T10:31:34;97757.91;;;17.88
71960;BMP280;59832;51.146;14.024;2023-08-31T10:34:05;97761.13;;;17.92
71960;BMP280;59832;51.146;14.024;2023-08-31T10:36:38;97764.09;;;17.74
71960;BMP280;59832;51.146;14.024;2023-08-31T10:39:10;97762.03;;;17.85
71960;BMP280;59832;51.146;14.024;2023-08-31T10:41:38;97759.75;;;18.04
71960;BMP280;59832;51.146;14.024;2023-08-31T10:44:22;97767.25;;;17.82
71960;BMP280;59832;51.146;14.024;2023-08-31T10:46:49;97751.38;;;17.83
71960;BMP280;59832;51.146;14.024;2023-08-31T10:49:18;97753.56;;;17.33
71960;BMP280;59832;51.146;14.024;2023-08-31T10:51:48;97743.59;;;16.96
71960;BMP280;59832;51.146;14.024;2023-08-31T10:59:17;97747.09;;;17.05
71960;BMP280;59832;51.146;14.024;2023-08-31T11:01:53;97754.22;;;17.17
71960;BMP280;59832;51.146;14.024;2023-08-31T11:04:24;97750.66;;;17.11
71960;BMP280;59832;51.146;14.024;2023-08-31T11:07:14;97751.34;;;18.03
71960;BMP280;59832;51.146;14.024;2023-08-31T11:09:41;97742.69;;;18.42
71960;BMP280;59832;51.146;14.024;2023-08-31T11:12:08;97737.16;;;18.11
71960;BMP280;59832;51.146;14.024;2023-08-31T11:14:35;97742.63;;;18.29
71960;BMP280;59832;51.146;14.024;2023-08-31T11:17:02;97734.66;;;18.81
71960;BMP280;59832;51.146;14.024;2023-08-31T11:19:33;97729.47;;;18.97
71960;BMP280;59832;51.146;14.024;2023-08-31T11:22:00;97728.41;;;18.54
71960;BMP280;59832;51.146;14.024;2023-08-31T11:24:32;97730.56;;;18.39
71960;BMP280;59832;51.146;14.024;2023-08-31T11:26:59;97738.34;;;18.23
71960;BMP280;59832;51.146;14.024;2023-08-31T11:29:26;97741.88;;;18.13
71960;BMP280;59832;51.146;14.024;2023-08-31T11:31:56;97744.63;;;17.89
71960;BMP280;59832;51.146;14.024;2023-08-31T11:34:22;97776.09;;;17.25
71960;BMP280;59832;51.146;14.024;2023-08-31T11:36:49;97779.91;;;16.05
71960;BMP280;59832;51.146;14.024;2023-08-31T11:39:17;97776.53;;;15.51
71960;BMP280;59832;51.146;14.024;2023-08-31T11:41:44;97792.63;;;15.17
71960;BMP280;59832;51.146;14.024;2023-08-31T11:44:12;97815.50;;;14.94
71960;BMP280;59832;51.146;14.024;2023-08-31T11:46:42;97817.13;;;15.22
71960;BMP280;59832;51.146;14.024;2023-08-31T11:49:09;97809.44;;;14.77
71960;BMP280;59832;51.146;14.024;2023-08-31T11:51:36;97808.25;;;14.93
71960;BMP280;59832;51.146;14.024;2023-08-31T11:54:04;97804.56;;;14.94
71960;BMP280;59832;51.146;14.024;2023-08-31T11:56:45;97806.50;;;15.20
71960;BMP280;59832;51.146;14.024;2023-08-31T11:59:16;97809.34;;;14.92
71960;BMP280;59832;51.146;14.024;2023-08-31T12:01:47;97819.53;;;14.95
71960;BMP280;59832;51.146;14.024;2023-08-31T12:04:17;97803.13;;;15.30
71960;BMP280;59832;51.146;14.024;2023-08-31T12:06:46;97800.97;;;15.25
71960;BMP280;59832;51.146;14.024;2023-08-31T12:09:14;97810.16;;;15.22
71960;BMP280;59832;51.146;14.024;2023-08-31T12:11:41;97805.56;;;15.44
71960;BMP280;59832;51.146;14.024;2023-08-31T12:14:24;97810.56;;;15.55
71960;BMP280;59832;51.146;14.024;2023-08-31T12:16:52;97811.81;;;15.73
71960;BMP280;59832;51.146;14.024;2023-08-31T12:19:19;97793.94;;;15.97
71960;BMP280;59832;51.146;14.024;2023-08-31T12:21:46;97784.75;;;16.72
71960;BMP280;59832;51.146;14.024;2023-08-31T12:24:12;97781.28;;;16.82
71960;BMP280;59832;51.146;14.024;2023-08-31T12:26:40;97782.06;;;16.79
71960;BMP280;59832;51.146;14.024;2023-08-31T12:29:06;97773.34;;;16.73
71960;BMP280;59832;51.146;14.024;2023-08-31T12:31:33;97775.38;;;16.62
71960;BMP280;59832;51.146;14.024;2023-08-31T12:34:00;97777.25;;;16.58
71960;BMP280;59832;51.146;14.024;2023-08-31T12:36:26;97775.59;;;16.48
71960;BMP280;59832;51.146;14.024;2023-08-31T12:38:53;97777.38;;;16.51
71960;BMP280;59832;51.146;14.024;2023-08-31T12:41:19;97762.34;;;16.50
71960;BMP280;59832;51.146;14.024;2023-08-31T12:43:50;97766.78;;;16.72
71960;BMP280;59832;51.146;14.024;2023-08-31T12:46:16;97774.19;;;16.90
71960;BMP280;59832;51.146;14.024;2023-08-31T12:48:43;97778.66;;;17.06
71960;BMP280;59832;51.146;14.024;2023-08-31T12:51:09;97770.84;;;17.13
71960;BMP280;59832;51.146;14.024;2023-08-31T12:53:39;97767.66;;;17.05
71960;BMP280;59832;51.146;14.024;2023-08-31T12:56:06;97765.28;;;17.14
71960;BMP280;59832;51.146;14.024;2023-08-31T12:58:32;97769.66;;;17.17
71960;BMP280;59832;51.146;14.024;2023-08-31T13:00:59;97776.47;;;17.43
71960;BMP280;59832;51.146;14.024;2023-08-31T13:03:26;97779.31;;;17.49
71960;BMP280;59832;51.146;14.024;2023-08-31T13:05:53;97784.06;;;17.51
71960;BMP280;59832;51.146;14.024;2023-08-31T13:08:20;97782.00;;;17.62
71960;BMP280;59832;51.146;14.024;2023-08-31T13:10:53;97790.56;;;17.55
71960;BMP280;59832;51.146;14.024;2023-08-31T13:13:20;97782.63;;;17.50
71960;BMP280;59832;51.146;14.024;2023-08-31T13:15:48;97769.88;;;17.62
71960;BMP280;59832;51.146;14.024;2023-08-31T13:18:15;97779.66;;;17.51
71960;BMP280;59832;51.146;14.024;2023-08-31T13:20:50;97777.28;;;17.21
71960;BMP280;59832;51.146;14.024;2023-08-31T13:23:16;97773.97;;;17.20
71960;BMP280;59832;51.146;14.024;2023-08-31T13:25:44;97792.06;;;17.36
71960;BMP280;59832;51.146;14.024;2023-08-31T13:28:11;97795.28;;;17.21
71960;BMP280;59832;51.146;14.024;2023-08-31T13:30:38;97803.06;;;16.98
71960;BMP280;59832;51.146;14.024;2023-08-31T13:33:06;97801.19;;;16.55
71960;BMP280;59832;51.146;14.024;2023-08-31T13:35:33;97803.41;;;16.26
71960;BMP280;59832;51.146;14.024;2023-08-31T13:38:01;97803.53;;;16.19
71960;BMP280;59832;51.146;14.024;2023-08-31T13:40:27;97805.34;;;16.22
71960;BMP280;59832;51.146;14.024;2023-08-31T13:42:55;97792.84;;;16.48
71960;BMP280;59832;51.146;14.024;2023-08-31T13:45:23;97793.56;;;16.48
71960;BMP280;59832;51.146;14.024;2023-08-31T13:47:49;97788.22;;;16.62
71960;BMP280;59832;51.146;14.024;2023-08-31T13:50:16;97795.56;;;16.83
71960;BMP280;59832;51.146;14.024;2023-08-31T13:52:43;97795.91;;;16.85
71960;BMP280;59832;51.146;14.024;2023-08-31T13:55:10;97795.78;;;16.93
71960;BMP280;59832;51.146;14.024;2023-08-31T13:57:38;97793.88;;;16.97
71960;BMP280;59832;51.146;14.024;2023-08-31T14:00:05;97786.63;;;17.11
71960;BMP280;59832;51.146;14.024;2023-08-31T14:02:36;97783.09;;;17.25
71960;BMP280;59832;51.146;14.024;2023-08-31T14:05:05;97785.97;;;17.47
71960;BMP280;59832;51.146;14.024;2023-08-31T14:07:36;97774.91;;;17.30